createdAt,value
2022-10-28T00:00:20.702Z,11.44
2022-10-28T00:04:07.999Z,11.38
2022-10-28T00:07:34.272Z,11.34
2022-10-28T00:11:07.665Z,11.29
2022-10-28T00:14:34.023Z,11.25
2022-10-28T00:18:00.856Z,11.23
2022-10-28T00:21:30.322Z,11.23
2022-10-28T00:24:57.350Z,11.24
2022-10-28T00:28:24.226Z,11.25
2022-10-28T00:31:53.052Z,11.26
2022-10-28T00:35:19.811Z,11.28
2022-10-28T00:38:48.980Z,11.31
2022-10-28T00:42:17.631Z,11.34
2022-10-28T00:45:45.010Z,11.36
2022-10-28T00:49:27.066Z,11.35
2022-10-28T00:52:59.457Z,11.35
2022-10-28T00:56:29.068Z,11.36
2022-10-28T00:59:56.685Z,11.33
2022-10-28T01:03:25.228Z,11.32
2022-10-28T01:06:52.890Z,11.29
2022-10-28T01:10:19.593Z,11.23
2022-10-28T01:14:01.145Z,11.21
2022-10-28T01:17:55.057Z,11.18
2022-10-28T01:21:41.846Z,11.16
2022-10-28T01:25:53.679Z,11.16
2022-10-28T01:29:49.709Z,11.17
2022-10-28T01:33:23.313Z,11.18
2022-10-28T01:37:00.947Z,11.19
2022-10-28T01:40:35.791Z,11.21
2022-10-28T01:44:08.540Z,11.22
2022-10-28T01:47:42.404Z,11.24
2022-10-28T01:51:14.890Z,11.25
2022-10-28T01:54:45.387Z,11.24
2022-10-28T01:58:15.142Z,11.22
2022-10-28T02:01:42.982Z,11.20
2022-10-28T02:05:46.510Z,11.16
2022-10-28T02:09:32.889Z,11.11
2022-10-28T02:13:04.510Z,11.05
2022-10-28T02:16:48.494Z,11.01
2022-10-28T02:20:27.841Z,10.97
2022-10-28T02:24:00.609Z,10.96
2022-10-28T02:27:35.601Z,10.95
2022-10-28T02:31:07.499Z,10.96
2022-10-28T02:34:41.501Z,10.99
2022-10-28T02:38:17.371Z,11.02
2022-10-28T02:41:50.854Z,11.07
2022-10-28T02:45:21.105Z,11.12
2022-10-28T02:48:52.852Z,11.16
2022-10-28T02:52:22.560Z,11.17
2022-10-28T02:55:55.044Z,11.17
2022-10-28T02:59:21.528Z,11.17
2022-10-28T03:02:48.285Z,11.16
2022-10-28T03:06:15.879Z,11.16
2022-10-28T03:09:45.859Z,11.15
2022-10-28T03:13:13.942Z,11.12
2022-10-28T03:16:40.752Z,11.12
2022-10-28T03:20:09.493Z,11.11
2022-10-28T03:23:36.780Z,11.11
2022-10-28T03:27:04.104Z,11.12
2022-10-28T03:30:32.087Z,11.13
2022-10-28T03:33:58.545Z,11.16
2022-10-28T03:37:26.670Z,11.19
2022-10-28T03:40:53.937Z,11.23
2022-10-28T03:44:20.463Z,11.26
2022-10-28T03:47:47.726Z,11.31
2022-10-28T03:51:14.122Z,11.36
2022-10-28T03:54:41.181Z,11.41
2022-10-28T03:58:08.604Z,11.46
2022-10-28T04:01:35.717Z,11.49
2022-10-28T04:05:02.708Z,11.50
2022-10-28T04:08:29.421Z,11.49
2022-10-28T04:11:57.820Z,11.47
2022-10-28T04:15:25.292Z,11.46
2022-10-28T04:18:52.263Z,11.46
2022-10-28T04:22:18.968Z,11.45
2022-10-28T04:25:53.155Z,11.45
2022-10-28T04:29:20.763Z,11.45
2022-10-28T04:32:48.760Z,11.48
2022-10-28T04:36:15.378Z,11.51
2022-10-28T04:39:41.913Z,11.54
2022-10-28T04:43:10.153Z,11.59
2022-10-28T04:46:37.668Z,11.64
2022-10-28T04:50:06.970Z,11.68
2022-10-28T04:53:34.047Z,11.70
2022-10-28T04:57:00.873Z,11.74
2022-10-28T05:00:29.778Z,11.80
2022-10-28T05:03:56.475Z,11.83
2022-10-28T05:07:23.763Z,11.85
2022-10-28T05:10:53.445Z,11.89
2022-10-28T05:14:33.405Z,11.89
2022-10-28T05:18:17.302Z,11.90
2022-10-28T05:22:22.972Z,11.89
2022-10-28T05:25:52.898Z,11.87
2022-10-28T05:29:21.500Z,11.84
2022-10-28T05:32:51.499Z,11.81
2022-10-28T05:36:22.338Z,11.79
2022-10-28T05:39:49.441Z,11.76
2022-10-28T05:43:15.947Z,11.74
2022-10-28T05:46:43.300Z,11.73
2022-10-28T05:50:11.391Z,11.73
2022-10-28T05:53:38.224Z,11.74
2022-10-28T05:57:04.978Z,11.76
2022-10-28T06:00:32.092Z,11.80
2022-10-28T06:03:58.679Z,11.82
2022-10-28T06:07:25.681Z,11.86
2022-10-28T06:10:54.781Z,11.88
2022-10-28T06:14:21.329Z,11.90
2022-10-28T06:17:51.201Z,11.90
2022-10-28T06:21:18.521Z,11.89
2022-10-28T06:24:45.880Z,11.86
2022-10-28T06:28:13.858Z,11.83
2022-10-28T06:31:42.760Z,11.79
2022-10-28T06:35:10.023Z,11.76
2022-10-28T06:38:37.075Z,11.72
2022-10-28T06:42:03.885Z,11.70
2022-10-28T06:45:33.201Z,11.69
2022-10-28T06:49:03.451Z,11.69
2022-10-28T06:52:31.429Z,11.70
2022-10-28T06:56:00.312Z,11.74
2022-10-28T06:59:27.102Z,11.76
2022-10-28T07:02:58.064Z,11.81
2022-10-28T07:06:25.225Z,11.85
2022-10-28T07:09:52.566Z,11.89
2022-10-28T07:13:19.887Z,11.93
2022-10-28T07:16:46.724Z,12.00
2022-10-28T07:20:15.092Z,12.08
2022-10-28T07:23:41.660Z,12.14
2022-10-28T07:27:09.063Z,12.17
2022-10-28T07:30:42.853Z,12.16
2022-10-28T07:34:11.836Z,12.18
2022-10-28T07:37:40.016Z,12.22
2022-10-28T07:41:10.790Z,12.24
2022-10-28T07:44:37.644Z,12.27
2022-10-28T07:48:05.518Z,12.31
2022-10-28T07:51:33.322Z,12.35
2022-10-28T07:55:00.604Z,12.41
2022-10-28T07:58:28.183Z,12.46
2022-10-28T08:01:55.327Z,12.50
2022-10-28T08:05:23.649Z,12.57
2022-10-28T08:08:54.921Z,12.64
2022-10-28T08:12:21.688Z,12.71
2022-10-28T08:15:54.696Z,12.77
2022-10-28T08:19:22.050Z,12.84
2022-10-28T08:22:49.514Z,12.94
2022-10-28T08:26:18.819Z,13.05
2022-10-28T08:29:45.442Z,13.12
2022-10-28T08:33:12.489Z,13.22
2022-10-28T08:36:39.049Z,13.32
2022-10-28T08:40:06.521Z,13.42
2022-10-28T08:43:57.737Z,13.52
2022-10-28T08:47:40.627Z,13.59
2022-10-28T08:51:16.391Z,13.70
2022-10-28T08:54:50.693Z,13.76
2022-10-28T08:58:21.249Z,13.87
2022-10-28T09:01:57.004Z,13.95
2022-10-28T09:05:29.477Z,14.03
2022-10-28T09:08:59.512Z,14.19
2022-10-28T09:12:40.962Z,14.31
2022-10-28T09:16:16.453Z,14.42
2022-10-28T09:20:14.071Z,14.56
2022-10-28T09:23:50.217Z,14.69
2022-10-28T09:27:30.108Z,14.83
2022-10-28T09:31:06.815Z,14.96
2022-10-28T09:34:44.729Z,15.11
2022-10-28T09:38:22.476Z,15.26
2022-10-28T09:41:54.256Z,15.41
2022-10-28T09:45:28.196Z,15.53
2022-10-28T09:48:58.540Z,15.59
2022-10-28T09:52:52.386Z,15.71
2022-10-28T09:56:19.748Z,15.78
2022-10-28T09:59:47.387Z,15.85
2022-10-28T10:03:32.528Z,15.90
2022-10-28T10:07:05.104Z,15.92
2022-10-28T10:10:47.458Z,15.97
2022-10-28T10:14:18.060Z,16.05
2022-10-28T10:17:48.650Z,16.11
2022-10-28T10:21:16.878Z,16.18
2022-10-28T10:24:48.481Z,16.27
2022-10-28T10:28:19.708Z,16.35
2022-10-28T10:31:48.667Z,16.40
2022-10-28T10:35:35.829Z,16.47
2022-10-28T10:39:04.664Z,16.53
2022-10-28T10:43:09.624Z,16.60
2022-10-28T10:46:41.090Z,16.61
2022-10-28T10:50:33.328Z,16.59
2022-10-28T10:54:01.654Z,16.58
2022-10-28T10:57:30.105Z,16.57
2022-10-28T11:01:22.737Z,16.53
2022-10-28T11:05:10.850Z,16.48
2022-10-28T11:08:41.362Z,16.45
2022-10-28T11:12:28.822Z,16.45
2022-10-28T11:16:05.431Z,16.46
2022-10-28T11:19:53.789Z,16.48
2022-10-28T11:23:38.631Z,16.52
2022-10-28T11:27:18.148Z,16.57
2022-10-28T11:30:54.950Z,16.63
2022-10-28T11:34:43.557Z,16.70
2022-10-28T11:38:48.347Z,16.75
2022-10-28T11:42:33.039Z,16.75
2022-10-28T11:46:07.773Z,16.76
2022-10-28T11:50:00.000Z,16.71
2022-10-28T11:54:05.850Z,16.71
2022-10-28T11:57:47.748Z,16.78
2022-10-28T12:01:58.113Z,16.84
2022-10-28T12:05:31.109Z,16.90
2022-10-28T12:09:13.757Z,16.92
2022-10-28T12:12:51.421Z,16.98
2022-10-28T12:16:26.364Z,16.97
2022-10-28T12:20:19.152Z,16.94
2022-10-28T12:23:51.469Z,16.92
2022-10-28T12:27:43.493Z,16.93
2022-10-28T12:31:23.363Z,16.92
2022-10-28T12:34:57.930Z,16.90
2022-10-28T12:38:33.691Z,16.91
2022-10-28T12:42:25.921Z,16.96
2022-10-28T12:45:55.115Z,16.99
2022-10-28T12:49:33.025Z,17.06
2022-10-28T12:53:31.411Z,17.12
2022-10-28T12:57:14.731Z,17.12
2022-10-28T13:00:47.055Z,17.13
2022-10-28T13:04:16.499Z,17.15
2022-10-28T13:08:01.829Z,17.19
2022-10-28T13:12:12.461Z,17.38
2022-10-28T13:16:11.211Z,17.56
2022-10-28T13:20:13.330Z,17.65
2022-10-28T13:23:45.405Z,17.65
2022-10-28T13:27:17.612Z,17.67
2022-10-28T13:30:56.871Z,17.65
2022-10-28T13:34:39.047Z,17.81
2022-10-28T13:38:27.266Z,17.95
2022-10-28T13:42:34.168Z,17.98
2022-10-28T13:46:01.563Z,17.97
2022-10-28T13:49:29.162Z,17.96
2022-10-28T13:53:43.123Z,17.91
2022-10-28T13:57:14.126Z,17.83
2022-10-28T14:00:41.322Z,17.73
2022-10-28T14:04:21.489Z,17.64
2022-10-28T14:07:59.109Z,17.58
2022-10-28T14:11:29.465Z,17.53
2022-10-28T14:15:26.804Z,17.45
2022-10-28T14:19:23.418Z,17.39
2022-10-28T14:23:53.335Z,17.35
2022-10-28T14:27:45.296Z,17.35
2022-10-28T14:31:41.708Z,17.36
2022-10-28T14:35:30.279Z,17.34
2022-10-28T14:39:36.969Z,17.32
2022-10-28T14:43:29.419Z,17.28
2022-10-28T14:47:59.549Z,17.28
2022-10-28T14:51:29.482Z,17.27
2022-10-28T14:55:03.874Z,17.28
2022-10-28T14:59:00.978Z,17.26
2022-10-28T15:02:35.421Z,17.23
2022-10-28T15:06:25.201Z,17.20
2022-10-28T15:09:55.958Z,17.19
2022-10-28T15:13:29.755Z,17.19
2022-10-28T15:17:02.405Z,17.21
2022-10-28T15:20:39.665Z,17.21
2022-10-28T15:24:15.076Z,17.16
2022-10-28T15:27:46.819Z,17.05
2022-10-28T15:31:34.211Z,16.98
2022-10-28T15:35:25.739Z,16.86
2022-10-28T15:39:07.877Z,16.76
2022-10-28T15:42:59.514Z,16.68
2022-10-28T15:46:31.324Z,16.62
2022-10-28T15:50:22.693Z,16.57
2022-10-28T15:53:54.194Z,16.53
2022-10-28T15:57:28.141Z,16.50
2022-10-28T16:01:31.679Z,16.47
2022-10-28T16:05:01.211Z,16.45
2022-10-28T16:08:41.654Z,16.45
2022-10-28T16:12:18.247Z,16.45
2022-10-28T16:15:55.416Z,16.42
2022-10-28T16:19:45.291Z,16.38
2022-10-28T16:23:19.471Z,16.37
2022-10-28T16:26:46.569Z,16.34
2022-10-28T16:30:16.642Z,16.32
2022-10-28T16:33:43.489Z,16.31
2022-10-28T16:37:30.566Z,16.30
2022-10-28T16:40:59.256Z,16.30
2022-10-28T16:44:29.373Z,16.29
2022-10-28T16:48:19.481Z,16.29
2022-10-28T16:51:48.689Z,16.27
2022-10-28T16:55:20.041Z,16.21
2022-10-28T16:58:48.469Z,16.21
2022-10-28T17:02:35.153Z,16.19
2022-10-28T17:06:02.547Z,16.13
2022-10-28T17:09:29.503Z,16.05
2022-10-28T17:12:57.371Z,16.01
2022-10-28T17:16:25.712Z,15.93
2022-10-28T17:19:52.454Z,15.88
2022-10-28T17:23:36.871Z,15.82
2022-10-28T17:27:05.237Z,15.77
2022-10-28T17:30:49.904Z,15.73
2022-10-28T17:34:34.978Z,15.70
2022-10-28T17:38:04.260Z,15.68
2022-10-28T17:41:49.325Z,15.66
2022-10-28T17:45:21.010Z,15.65
2022-10-28T17:48:55.919Z,15.62
2022-10-28T17:52:40.642Z,15.62
2022-10-28T17:56:11.602Z,15.61
2022-10-28T17:59:38.808Z,15.59
2022-10-28T18:03:06.551Z,15.57
2022-10-28T18:06:51.787Z,15.54
2022-10-28T18:10:19.136Z,15.49
2022-10-28T18:13:49.245Z,15.42
2022-10-28T18:17:19.047Z,15.35
2022-10-28T18:20:53.587Z,15.28
2022-10-28T18:24:26.026Z,15.21
2022-10-28T18:28:13.382Z,15.14
2022-10-28T18:32:11.467Z,15.09
2022-10-28T18:36:02.807Z,15.07
2022-10-28T18:39:33.455Z,15.07
2022-10-28T18:43:02.114Z,15.08
2022-10-28T18:46:48.037Z,15.06
2022-10-28T18:50:14.896Z,15.13
2022-10-28T18:53:44.542Z,15.15
2022-10-28T18:57:30.803Z,15.17
2022-10-28T19:01:07.548Z,15.18
2022-10-28T19:04:34.247Z,15.20
2022-10-28T19:08:02.736Z,15.21
2022-10-28T19:11:31.772Z,15.21
2022-10-28T19:14:58.940Z,15.22
2022-10-28T19:18:29.706Z,15.24
2022-10-28T19:21:57.809Z,15.25
2022-10-28T19:25:46.342Z,15.27
2022-10-28T19:29:20.498Z,15.28
2022-10-28T19:32:49.083Z,15.30
2022-10-28T19:36:20.852Z,15.31
2022-10-28T19:39:51.800Z,15.31
2022-10-28T19:43:22.451Z,15.30
2022-10-28T19:46:51.690Z,15.27
2022-10-28T19:50:19.578Z,15.23
2022-10-28T19:53:50.446Z,15.17
2022-10-28T19:57:17.790Z,15.10
2022-10-28T20:00:45.748Z,15.03
2022-10-28T20:04:13.559Z,14.95
2022-10-28T20:07:40.834Z,14.91
2022-10-28T20:11:29.107Z,14.85
2022-10-28T20:14:56.045Z,14.81
2022-10-28T20:18:22.946Z,14.80
2022-10-28T20:21:55.018Z,14.79
2022-10-28T20:25:21.936Z,14.78
2022-10-28T20:28:49.281Z,14.78
2022-10-28T20:32:16.965Z,14.78
2022-10-28T20:35:46.760Z,14.78
2022-10-28T20:39:17.170Z,14.79
2022-10-28T20:42:43.792Z,14.78
2022-10-28T20:46:16.068Z,14.74
2022-10-28T20:49:46.556Z,14.74
2022-10-28T20:53:13.711Z,14.72
2022-10-28T20:56:42.443Z,14.66
2022-10-28T21:00:15.022Z,14.61
2022-10-28T21:03:44.360Z,14.55
2022-10-28T21:07:11.236Z,14.47
2022-10-28T21:10:38.571Z,14.43
2022-10-28T21:14:06.326Z,14.42
2022-10-28T21:17:34.674Z,14.44
2022-10-28T21:21:02.393Z,14.49
2022-10-28T21:24:47.847Z,14.55
2022-10-28T21:28:17.743Z,14.60
2022-10-28T21:31:47.407Z,14.66
2022-10-28T21:35:15.433Z,14.71
2022-10-28T21:38:43.950Z,14.76
2022-10-28T21:42:10.874Z,14.79
2022-10-28T21:45:40.272Z,14.84
2022-10-28T21:49:25.014Z,14.88
2022-10-28T21:53:09.849Z,14.91
2022-10-28T21:56:36.908Z,14.95
2022-10-28T22:00:03.649Z,14.97
2022-10-28T22:03:40.657Z,15.00
2022-10-28T22:07:08.004Z,15.00
2022-10-28T22:10:59.481Z,15.01
2022-10-28T22:14:48.719Z,15.02
2022-10-28T22:18:16.934Z,15.02
2022-10-28T22:22:04.114Z,15.01
2022-10-28T22:25:32.292Z,14.99
2022-10-28T22:29:00.626Z,14.99
2022-10-28T22:32:48.399Z,14.99
2022-10-28T22:36:18.450Z,14.99
2022-10-28T22:39:46.124Z,14.99
2022-10-28T22:43:12.863Z,14.98
2022-10-28T22:46:42.881Z,14.99
2022-10-28T22:50:12.429Z,14.97
2022-10-28T22:53:40.813Z,14.94
2022-10-28T22:57:08.379Z,14.91
2022-10-28T23:00:35.707Z,14.87
2022-10-28T23:04:03.490Z,14.82
2022-10-28T23:07:47.941Z,14.73
2022-10-28T23:11:32.361Z,14.62
2022-10-28T23:15:16.909Z,14.51
2022-10-28T23:18:44.861Z,14.46
2022-10-28T23:22:11.677Z,14.43
2022-10-28T23:25:39.435Z,14.40
2022-10-28T23:29:10.016Z,14.38
2022-10-28T23:32:37.766Z,14.38
2022-10-28T23:36:06.310Z,14.39
2022-10-28T23:39:51.024Z,14.37
2022-10-28T23:43:17.973Z,14.40
2022-10-28T23:46:45.141Z,14.40
2022-10-28T23:50:15.035Z,14.44
2022-10-28T23:53:41.919Z,14.47
2022-10-28T23:57:08.669Z,14.47
